Identifier: KMEV

AWOS Phone: 775-782-6264

AWOS Radio Freq: 119.325

Latitude: 39.00000000

Longitude: -119.75190000

Current Conditions

Updated: 2:30 PM GMT on 28 Mar 2020

  • Wind Speed (2min):
    2 Knots
  • Wind Direction (2min):
    140 Degrees
  • Temperature (10min):
    -4 Celsius
  • Dew Point (10min):
    -5 Celsius
  • Humidity:
    89 Percent
  • Altimeter:
    30.14 inHG
  • Density Altitude:
  • Visibility:
    9 Miles
  • Clouds:
    CLR
  • Rainfall Current Hour:
    0 Inches
METAR: METAR KMEV 281430Z AUTO 00000KT 9SM CLR M04/M05 A3014 RMK AO2